»·PEaware :: N8427G KSBD-KEMT

N8427G :: KSBD-KEMT

FLIGHT INFORMATION

Flight Status: Arrived
Operator: Privately registered:
United States
More flights under this callsign
Pilot: Walter A. (18941)
Aircraft: PIPER PA-28 CHEROKEE ARCHER
(PA28)
More flights by this aircraft type
Origin: KSBD San Bernardino Intl
United States
Destination: KEMT El Monte
United States
More flights between these airports :: More routes between these airports
Route: DIRECT
File this flight plan on PilotEdge
Remarks: quick frequency change to SOCal approach
Altitude:
(Current/Filed)
4,500ft
Speed:
(Current/Filed)
110kts
Departed: 03-Jul-19 01:52 PM
Arrived: 03-Jul-19 02:17 PM
Distance/Time
Traveled:
40nm/0:25
Distance/Time
To Go:
Arrived

Flight Plot

Page will automatically refresh every two minutes.


Map Options




Map Legend


Flown Route
Filed Route
Departure Airport
Arrival Airport
Navaid (VOR, NDB)
Fix

Horizontal Profiles

Position Reports

Time Latitude Longitude Heading Altitude Ground
Speed
03-Jul-19 13:02 34.102166 -117.224730 93 1147ft 0kts
03-Jul-19 13:03 34.102166 -117.224730 93 1147ft 0kts
03-Jul-19 13:04 34.102166 -117.224730 93 1147ft 0kts
03-Jul-19 13:05 34.102166 -117.224730 93 1147ft 0kts
03-Jul-19 13:06 34.102166 -117.224730 93 1147ft 0kts
03-Jul-19 13:07 34.102166 -117.224730 93 1147ft 0kts
03-Jul-19 13:08 34.102166 -117.224730 93 1147ft 0kts
03-Jul-19 13:09 34.102166 -117.224730 93 1147ft 0kts
03-Jul-19 13:10 34.102166 -117.224730 93 1147ft 0kts
03-Jul-19 13:10 34.102166 -117.224730 93 1147ft 0kts
03-Jul-19 13:12 34.102166 -117.224730 93 1147ft 0kts
03-Jul-19 13:12 34.102166 -117.224730 93 1147ft 0kts
03-Jul-19 13:14 34.102166 -117.224730 93 1147ft 0kts
03-Jul-19 13:15 34.102166 -117.224730 93 1147ft 0kts
03-Jul-19 13:15 34.102166 -117.224730 93 1147ft 0kts
03-Jul-19 13:17 34.102166 -117.224730 93 1147ft 0kts
03-Jul-19 13:17 34.102166 -117.224730 93 1147ft 0kts
03-Jul-19 13:18 34.102166 -117.224730 93 1147ft 0kts
03-Jul-19 13:19 34.102166 -117.224730 93 1147ft 0kts
03-Jul-19 13:20 34.102166 -117.224730 93 1147ft 0kts
03-Jul-19 13:21 34.102166 -117.224730 93 1147ft 0kts
03-Jul-19 13:22 34.102166 -117.224730 93 1147ft 0kts
03-Jul-19 13:23 34.102166 -117.224730 93 1147ft 0kts
03-Jul-19 13:30 34.102166 -117.224730 93 1147ft 0kts
03-Jul-19 13:31 34.102166 -117.224730 93 1147ft 0kts
03-Jul-19 13:32 34.102166 -117.224730 93 1147ft 0kts
03-Jul-19 13:33 34.102166 -117.224730 93 1147ft 0kts
03-Jul-19 13:34 34.102166 -117.224730 93 1147ft 0kts
03-Jul-19 13:35 34.102166 -117.224730 93 1147ft 0kts
03-Jul-19 13:36 34.102166 -117.224730 93 1147ft 0kts
03-Jul-19 13:37 34.102166 -117.224730 93 1147ft 0kts
03-Jul-19 13:38 34.102166 -117.224730 93 1147ft 0kts
03-Jul-19 13:39 34.102166 -117.224730 93 1147ft 0kts
03-Jul-19 13:40 34.101322 -117.224681 201 1147ft 24kts
03-Jul-19 13:41 34.100996 -117.224897 204 1147ft 0kts
03-Jul-19 13:42 34.100939 -117.223567 76 1149ft 5kts
03-Jul-19 13:43 34.101347 -117.220088 129 1159ft 7kts
03-Jul-19 13:44 34.100806 -117.219745 161 1160ft 0kts
03-Jul-19 13:45 34.100805 -117.219745 161 1160ft 0kts
03-Jul-19 13:46 34.100805 -117.219745 161 1160ft 0kts
03-Jul-19 13:47 34.100805 -117.219745 161 1160ft 0kts
03-Jul-19 13:48 34.100805 -117.219745 161 1160ft 0kts
03-Jul-19 13:49 34.100805 -117.219745 161 1160ft 0kts
03-Jul-19 13:50 34.100519 -117.219613 159 1160ft 8kts
03-Jul-19 13:51 34.094551 -117.236832 251 1449ft 92kts
03-Jul-19 13:52 34.090895 -117.267500 272 2399ft 85kts
03-Jul-19 13:53 34.099184 -117.291304 309 3150ft 90kts
03-Jul-19 13:54 34.115001 -117.315755 310 3878ft 96kts
03-Jul-19 13:55 34.129765 -117.342896 300 4598ft 97kts
03-Jul-19 13:56 34.145613 -117.377867 293 4600ft 134kts
03-Jul-19 13:57 34.144999 -117.421944 249 4367ft 129kts
03-Jul-19 13:58 34.130519 -117.457898 248 4347ft 121kts
03-Jul-19 13:59 34.126371 -117.494548 251 4508ft 100kts
03-Jul-19 14:00 34.114538 -117.524712 244 4691ft 103kts
03-Jul-19 14:01 34.107802 -117.559780 270 4683ft 114kts
03-Jul-19 14:02 34.108015 -117.597098 270 4749ft 113kts
03-Jul-19 14:03 34.108126 -117.636267 267 4574ft 124kts
03-Jul-19 14:04 34.111130 -117.674583 281 4387ft 119kts
03-Jul-19 14:05 34.110898 -117.713753 244 3949ft 123kts
03-Jul-19 14:06 34.100489 -117.749493 275 3487ft 119kts
03-Jul-19 14:07 34.114660 -117.781142 320 3378ft 104kts
03-Jul-19 14:08 34.127595 -117.812187 282 3193ft 107kts
03-Jul-19 14:09 34.125808 -117.842741 256 3335ft 98kts
03-Jul-19 14:10 34.119928 -117.879703 271 2530ft 121kts
03-Jul-19 14:11 34.123352 -117.913839 274 2182ft 91kts
03-Jul-19 14:12 34.123758 -117.944304 262 2180ft 107kts
03-Jul-19 14:13 34.117840 -117.978244 256 1789ft 98kts
03-Jul-19 14:14 34.110034 -118.010740 254 1717ft 101kts
03-Jul-19 14:15 34.091977 -118.031475 205 359ft 57kts
03-Jul-19 14:16 34.085428 -118.034722 128 288ft 0kts
03-Jul-19 14:17 34.085428 -118.034722 128 288ft 0kts
03-Jul-19 14:18 34.084596 -118.033808 112 289ft 10kts
03-Jul-19 14:19 34.084175 -118.033326 201 292ft 0kts
03-Jul-19 14:20 34.084175 -118.033326 201 292ft 0kts
03-Jul-19 14:21 34.084175 -118.033326 201 292ft 0kts
03-Jul-19 14:22 34.084175 -118.033326 201 292ft 0kts
03-Jul-19 14:23 34.084175 -118.033326 201 292ft 0kts
03-Jul-19 14:24 34.084175 -118.033326 201 292ft 0kts
03-Jul-19 14:25 34.084175 -118.033326 201 292ft 0kts
03-Jul-19 14:26 34.084175 -118.033326 201 292ft 0kts
03-Jul-19 14:27 34.084175 -118.033326 201 292ft 0kts
03-Jul-19 14:28 34.084175 -118.033326 201 292ft 0kts
03-Jul-19 14:29 34.084175 -118.033326 201 292ft 0kts
03-Jul-19 14:30 34.084175 -118.033326 201 292ft 0kts

Navigation Log

Ident Type
Flight plan parsing failed, navigation log unavailable